In Rescue
 
Open Full Screen Window  High Contrast Mode
Wind Gusting 00 knots
06
August 09, 2020 6:59 PM EDT
Weather Information
Wind Direction
  220 °
Wind Speed
  06 kt (7 mph)
Wind Gust
  00 kt (0 mph)
Altimeter
30.01 in
Visibility
10 SM
Temperature
30° C
86° F
Dewpoint
20° C
68° F
Humidity
55%
1hr Rain Fall
00.00 in.
24hr Rain Fall
00.00 in.
Sky Condition
Clear
VFR

METAR KOZW 092259Z AUTO 22006KT 10SM CLR 30/20 A3001 RMK AO2 T02970197

FAA Disclaimer: The data displayed is for advisory purposes only and is not to be used for flight planning or operations.